Airports

 

 

Airport Name Latest METAR Visual Conditions
Atlantic City Int. (ACY) KACY 181754Z 30018G30KT 10SM BKN036 BKN045 08/02 A2990 RMK AO2 PK WND 31036/1714 SLP127 60000 T00830017 10089 20044 53017 $ VFR
Baltimore International Airport (BWI) KBWI 181754Z 29020G31KT 10SM SCT049 BKN250 08/M02 A2998 RMK AO2 PK WND 29034/1710 SLP152 T00781017 10089 20022 51026 VFR
Washington National Airport (DCA) KDCA 181852Z 30015G29KT 10SM FEW050 BKN250 09/M03 A3004 RMK AO2 PK WND 32031/1835 SLP172 T00941028 VFR
Dulles International Airport (IAD) KIAD 181852Z 31022G28KT 10SM BKN055 BKN160 BKN250 07/M02 A3004 RMK AO2 PK WND 31030/1838 SLP174 T00721022 VFR
Norfolk International Airport (ORF) KORF 181851Z 03011KT 10SM CLR 13/08 A2998 RMK AO2 SLP152 T01280078 $ VFR
Raleigh International Airport (RDU) KRDU 181851Z 29007KT 270V360 10SM FEW050 SCT200 BKN250 17/04 A3005 RMK AO2 SLP176 T01670039 VFR
Richmond International Airport (RIC) KRIC 181754Z 32015G19KT 10SM FEW045 SCT220 BKN300 14/02 A3000 RMK AO2 SLP163 60001 T01390022 10139 20056 51017 $ VFR
Roanoke Regional Airport (ROA) KROA 181754Z 30019G29KT 10SM SCT050 08/M02 A3009 RMK AO2 PK WND 31029/1747 SLP193 T00831022 10089 20056 51022 VFR